createdAt,value
2018-12-26T00:01:44.798Z,6.83
2018-12-26T00:04:13.421Z,7.23
2018-12-26T00:09:54.730Z,7.30
2018-12-26T00:12:35.675Z,6.43
2018-12-26T00:15:16.275Z,6.50
2018-12-26T00:17:44.722Z,7.30
2018-12-26T00:20:13.156Z,6.63
2018-12-26T00:22:41.800Z,6.50
2018-12-26T00:25:10.281Z,6.30
2018-12-26T00:27:38.734Z,6.20
2018-12-26T00:30:07.216Z,6.60
2018-12-26T00:32:35.694Z,5.20
2018-12-26T00:35:23.488Z,6.00
2018-12-26T00:38:04.302Z,6.47
2018-12-26T00:40:45.103Z,5.90
2018-12-26T00:43:13.590Z,5.80
2018-12-26T00:46:02.871Z,5.40
2018-12-26T00:48:31.295Z,6.20
2018-12-26T00:50:59.690Z,5.70
2018-12-26T00:56:21.388Z,6.10
2018-12-26T00:58:49.818Z,5.87
2018-12-26T01:01:18.226Z,5.60
2018-12-26T01:03:46.886Z,6.30
2018-12-26T01:06:15.475Z,5.90
2018-12-26T01:08:43.882Z,6.10
2018-12-26T01:11:31.777Z,6.30
2018-12-26T01:14:12.618Z,5.93
2018-12-26T01:22:28.067Z,6.27
2018-12-26T01:25:16.214Z,5.90
2018-12-26T01:30:18.803Z,6.03
2018-12-26T01:35:53.435Z,5.60
2018-12-26T01:38:34.101Z,6.10
2018-12-26T01:41:15.207Z,5.40
2018-12-26T01:43:55.928Z,5.07
2018-12-26T01:46:36.766Z,5.70
2018-12-26T01:49:17.722Z,5.80
2018-12-26T01:51:58.187Z,5.97
2018-12-26T01:54:38.827Z,5.63
2018-12-26T01:57:19.826Z,6.30
2018-12-26T02:00:00.586Z,5.90
2018-12-26T02:02:41.560Z,5.50
2018-12-26T02:05:22.185Z,5.60
2018-12-26T02:08:03.222Z,5.93
2018-12-26T02:10:43.967Z,5.80
2018-12-26T02:13:24.678Z,6.20
2018-12-26T02:16:05.319Z,6.63
2018-12-26T02:18:46.063Z,5.80
2018-12-26T02:21:26.603Z,5.80
2018-12-26T02:24:07.144Z,6.77
2018-12-26T02:26:48.014Z,6.90
2018-12-26T02:29:28.763Z,7.20
2018-12-26T02:32:09.084Z,6.47
2018-12-26T02:34:50.020Z,7.50
2018-12-26T02:39:59.207Z,8.13
2018-12-26T02:42:39.498Z,7.70
2018-12-26T02:45:20.491Z,7.00
2018-12-26T02:48:01.290Z,7.53
2018-12-26T02:50:42.042Z,8.20
2018-12-26T02:53:23.062Z,9.23
2018-12-26T02:56:03.840Z,9.30
2018-12-26T02:58:44.707Z,9.17
2018-12-26T03:01:25.283Z,9.07
2018-12-26T03:04:06.380Z,10.00
2018-12-26T03:06:46.951Z,10.90
2018-12-26T03:09:27.775Z,10.50
2018-12-26T03:11:56.603Z,10.63
2018-12-26T03:14:25.015Z,9.97
2018-12-26T03:22:46.379Z,11.33
2018-12-26T03:25:27.306Z,10.37
2018-12-26T03:28:07.811Z,11.30
2018-12-26T03:30:48.664Z,11.60
2018-12-26T03:33:29.671Z,10.83
2018-12-26T03:36:10.186Z,11.50
2018-12-26T03:38:51.219Z,11.40
2018-12-26T03:41:32.135Z,11.37
2018-12-26T03:44:13.002Z,12.57
2018-12-26T03:46:53.764Z,12.30
2018-12-26T03:49:34.084Z,11.23
2018-12-26T03:52:15.004Z,12.87
2018-12-26T03:54:56.014Z,12.83
2018-12-26T03:57:36.675Z,12.33
2018-12-26T04:00:17.724Z,12.40
2018-12-26T04:02:58.006Z,13.27
2018-12-26T04:05:38.846Z,13.10
2018-12-26T04:08:19.662Z,12.37
2018-12-26T04:11:00.652Z,12.80
2018-12-26T04:13:41.716Z,12.10
2018-12-26T04:16:22.650Z,13.27
2018-12-26T04:19:03.094Z,11.50
2018-12-26T04:21:43.892Z,11.70
2018-12-26T04:24:24.355Z,11.70
2018-12-26T04:27:05.287Z,12.77
2018-12-26T04:29:46.144Z,12.07
2018-12-26T04:32:26.835Z,11.50
2018-12-26T04:35:07.194Z,11.33
2018-12-26T04:37:48.256Z,13.03
2018-12-26T04:40:28.694Z,12.57
2018-12-26T04:43:09.279Z,12.00
2018-12-26T04:45:49.928Z,12.50
2018-12-26T04:48:30.791Z,13.50
2018-12-26T04:51:11.715Z,13.03
2018-12-26T04:53:52.358Z,13.63
2018-12-26T04:56:40.251Z,12.80
2018-12-26T04:59:20.819Z,13.87
2018-12-26T05:02:01.636Z,13.10
2018-12-26T05:04:42.148Z,14.30
2018-12-26T05:07:23.358Z,12.83
2018-12-26T05:10:04.128Z,13.73
2018-12-26T05:12:44.855Z,13.37
2018-12-26T05:15:24.994Z,13.00
2018-12-26T05:18:05.960Z,13.17
2018-12-26T05:20:46.603Z,12.57
2018-12-26T05:23:27.512Z,13.30
2018-12-26T05:26:08.359Z,12.93
2018-12-26T05:28:48.827Z,12.80
2018-12-26T05:31:29.453Z,13.27
2018-12-26T05:34:10.055Z,13.00
2018-12-26T05:36:51.043Z,14.13
2018-12-26T05:39:31.966Z,13.67
2018-12-26T05:42:12.567Z,12.03
2018-12-26T05:44:53.581Z,12.60
2018-12-26T05:47:34.248Z,12.60
2018-12-26T05:50:14.767Z,12.93
2018-12-26T05:52:55.336Z,12.80
2018-12-26T05:55:36.614Z,13.00
2018-12-26T05:58:16.879Z,13.67
2018-12-26T06:00:57.218Z,13.10
2018-12-26T06:03:37.807Z,14.10
2018-12-26T06:06:18.512Z,14.27
2018-12-26T06:08:59.009Z,14.23
2018-12-26T06:11:39.812Z,13.40
2018-12-26T06:14:20.526Z,14.70
2018-12-26T06:17:00.906Z,13.27
2018-12-26T06:19:41.543Z,13.07
2018-12-26T06:22:22.375Z,13.23
2018-12-26T06:25:03.002Z,13.77
2018-12-26T06:27:51.246Z,12.40
2018-12-26T06:30:26.354Z,12.40
2018-12-26T06:33:07.003Z,12.17
2018-12-26T06:35:47.955Z,13.43
2018-12-26T06:38:28.954Z,13.10
2018-12-26T06:41:09.771Z,13.53
2018-12-26T06:43:50.102Z,13.07
2018-12-26T06:46:30.784Z,12.70
2018-12-26T06:49:11.528Z,13.70
2018-12-26T06:51:52.664Z,12.60
2018-12-26T06:54:33.326Z,12.77
2018-12-26T06:57:13.958Z,14.07
2018-12-26T06:59:54.518Z,13.13
2018-12-26T07:02:35.475Z,12.97
2018-12-26T07:05:16.263Z,13.03
2018-12-26T07:07:57.257Z,12.47
2018-12-26T07:10:37.643Z,13.33
2018-12-26T07:13:18.407Z,12.50
2018-12-26T07:15:58.947Z,12.53
2018-12-26T07:18:39.666Z,12.90
2018-12-26T07:21:20.462Z,13.30
2018-12-26T07:24:01.006Z,12.73
2018-12-26T07:26:41.614Z,13.40
2018-12-26T07:29:22.483Z,13.60
2018-12-26T07:32:03.310Z,14.73
2018-12-26T07:34:44.211Z,13.77
2018-12-26T07:37:25.318Z,13.83
2018-12-26T07:40:06.254Z,15.17
2018-12-26T07:42:46.662Z,14.20
2018-12-26T07:45:27.270Z,12.67
2018-12-26T07:48:08.279Z,13.67
2018-12-26T07:50:49.135Z,14.73
2018-12-26T07:53:30.123Z,14.57
2018-12-26T07:56:11.041Z,14.17
2018-12-26T07:58:51.555Z,13.87
2018-12-26T08:01:32.305Z,14.13
2018-12-26T08:04:12.695Z,14.60
2018-12-26T08:06:53.425Z,15.53
2018-12-26T08:09:34.120Z,17.10
2018-12-26T08:12:02.597Z,16.33
2018-12-26T08:14:50.377Z,15.60
2018-12-26T08:17:31.382Z,16.00
2018-12-26T08:22:27.080Z,15.87
2018-12-26T08:28:08.755Z,17.07
2018-12-26T08:30:49.029Z,17.17
2018-12-26T08:33:30.034Z,16.07
2018-12-26T08:36:10.894Z,16.30
2018-12-26T08:38:50.166Z,17.13
2018-12-26T08:41:38.102Z,17.53
2018-12-26T08:44:18.870Z,16.87
2018-12-26T08:46:59.403Z,16.87
2018-12-26T08:49:40.106Z,15.83
2018-12-26T08:52:20.626Z,15.53
2018-12-26T08:55:01.404Z,16.33
2018-12-26T08:57:41.735Z,16.77
2018-12-26T09:00:10.249Z,17.30
2018-12-26T09:02:38.704Z,17.90
2018-12-26T09:08:20.422Z,17.60
2018-12-26T09:11:00.651Z,18.30
2018-12-26T09:13:41.426Z,17.90
2018-12-26T09:16:22.371Z,18.40
2018-12-26T09:18:50.803Z,18.97
2018-12-26T09:21:38.691Z,18.60
2018-12-26T09:24:19.039Z,17.30
2018-12-26T09:27:00.010Z,18.13
2018-12-26T09:31:50.764Z,16.87
2018-12-26T09:34:38.719Z,17.27
2018-12-26T09:37:26.618Z,17.00
2018-12-26T09:40:14.387Z,16.20
2018-12-26T09:43:02.194Z,17.50
2018-12-26T09:45:43.295Z,15.83
2018-12-26T09:48:22.298Z,16.07
2018-12-26T09:51:10.057Z,15.03
2018-12-26T09:56:49.519Z,14.33
2018-12-26T09:59:30.437Z,15.00
2018-12-26T10:02:11.502Z,14.27
2018-12-26T10:04:52.170Z,14.73
2018-12-26T10:07:32.622Z,13.63
2018-12-26T10:10:13.607Z,13.47
2018-12-26T10:12:54.886Z,15.03
2018-12-26T10:15:35.511Z,13.77
2018-12-26T10:18:15.946Z,12.07
2018-12-26T10:20:56.183Z,12.97
2018-12-26T10:23:37.042Z,12.43
2018-12-26T10:26:17.836Z,11.93
2018-12-26T10:29:00.980Z,12.47
2018-12-26T10:31:40.833Z,13.10
2018-12-26T10:34:21.597Z,11.27
2018-12-26T10:37:02.062Z,11.17
2018-12-26T10:39:43.136Z,10.97
2018-12-26T10:42:23.745Z,10.87
2018-12-26T10:45:03.992Z,11.33
2018-12-26T10:47:44.605Z,11.50
2018-12-26T10:50:25.445Z,11.07
2018-12-26T10:53:06.342Z,11.10
2018-12-26T10:55:47.371Z,10.93
2018-12-26T10:58:27.878Z,11.20
2018-12-26T11:01:08.697Z,11.20
2018-12-26T11:03:49.001Z,10.73
2018-12-26T11:06:29.959Z,11.40
2018-12-26T11:09:10.700Z,10.83
2018-12-26T11:11:51.378Z,11.87
2018-12-26T11:14:31.972Z,11.90
2018-12-26T11:17:13.106Z,13.07
2018-12-26T11:19:53.535Z,13.57
2018-12-26T11:22:34.230Z,13.77
2018-12-26T11:25:14.722Z,12.80
2018-12-26T11:27:55.260Z,12.80
2018-12-26T11:30:35.814Z,13.43
2018-12-26T11:33:16.379Z,13.17
2018-12-26T11:35:56.699Z,11.90
2018-12-26T11:38:37.603Z,12.47
2018-12-26T11:41:17.929Z,12.43
2018-12-26T11:43:59.190Z,12.77
2018-12-26T11:46:39.603Z,12.63
2018-12-26T11:49:20.701Z,13.37
2018-12-26T11:52:01.355Z,12.60
2018-12-26T11:54:42.420Z,13.13
2018-12-26T11:57:22.855Z,13.10
2018-12-26T12:00:03.947Z,13.47
2018-12-26T12:02:44.491Z,14.17
2018-12-26T12:05:25.025Z,13.70
2018-12-26T12:08:05.526Z,13.53
2018-12-26T12:10:46.542Z,13.83
2018-12-26T12:13:14.978Z,13.60
2018-12-26T12:18:49.350Z,13.33
2018-12-26T12:21:30.105Z,13.60
2018-12-26T12:24:10.875Z,13.47
2018-12-26T12:26:51.823Z,13.90
2018-12-26T12:29:20.244Z,14.40
2018-12-26T12:32:08.059Z,14.73
2018-12-26T12:34:48.722Z,15.47
2018-12-26T12:37:29.383Z,14.80
2018-12-26T12:40:09.866Z,14.70
2018-12-26T12:42:51.496Z,15.00
2018-12-26T12:45:32.446Z,14.80
2018-12-26T12:48:13.058Z,15.40
2018-12-26T12:50:54.003Z,15.83
2018-12-26T12:53:35.008Z,15.23
2018-12-26T12:56:16.039Z,15.33
2018-12-26T12:58:56.398Z,15.33
2018-12-26T13:01:37.115Z,14.97
2018-12-26T13:04:18.194Z,13.97
2018-12-26T13:06:58.532Z,14.17
2018-12-26T13:09:38.966Z,15.23
2018-12-26T13:12:19.728Z,14.83
2018-12-26T13:15:00.578Z,14.10
2018-12-26T13:17:29.058Z,14.43
2018-12-26T13:19:57.482Z,14.53
2018-12-26T13:25:00.350Z,16.27
2018-12-26T13:30:43.615Z,15.63
2018-12-26T13:33:12.119Z,15.50
2018-12-26T13:35:40.544Z,14.73
2018-12-26T13:38:09.065Z,15.83
2018-12-26T13:40:56.962Z,15.23
2018-12-26T13:43:25.419Z,15.90
2018-12-26T13:46:13.366Z,14.40
2018-12-26T13:49:01.123Z,15.33
2018-12-26T13:51:29.825Z,16.03
2018-12-26T13:53:58.248Z,14.77
2018-12-26T13:56:46.035Z,14.80
2018-12-26T13:59:26.999Z,15.03
2018-12-26T14:01:55.909Z,15.17
2018-12-26T14:04:24.313Z,14.90
2018-12-26T14:06:52.738Z,14.43
2018-12-26T14:09:40.575Z,15.13
2018-12-26T14:12:09.041Z,16.37
2018-12-26T14:14:37.460Z,16.10
2018-12-26T14:17:25.279Z,14.67
2018-12-26T14:19:53.842Z,15.33
2018-12-26T14:22:22.270Z,15.67
2018-12-26T14:24:50.751Z,15.53
2018-12-26T14:27:19.170Z,16.07
2018-12-26T14:29:47.606Z,16.23
2018-12-26T14:32:16.151Z,17.10
2018-12-26T14:34:44.582Z,16.00
2018-12-26T14:37:12.991Z,15.80
2018-12-26T14:39:41.589Z,15.63
2018-12-26T14:42:29.431Z,15.53
2018-12-26T14:45:10.146Z,16.00
2018-12-26T14:47:38.578Z,15.70
2018-12-26T14:50:26.595Z,14.50
2018-12-26T14:53:06.927Z,15.73
2018-12-26T14:55:35.522Z,15.37
2018-12-26T14:58:23.275Z,15.83
2018-12-26T15:01:02.251Z,15.57
2018-12-26T15:03:30.678Z,16.40
2018-12-26T15:06:10.976Z,16.30
2018-12-26T15:08:50.878Z,16.40
2018-12-26T15:11:19.709Z,16.40
2018-12-26T15:17:01.007Z,15.90
2018-12-26T15:22:04.079Z,16.00
2018-12-26T15:24:32.822Z,16.13
2018-12-26T15:27:01.250Z,16.83
2018-12-26T15:35:22.591Z,17.43
2018-12-26T15:38:10.075Z,17.70
2018-12-26T15:46:36.592Z,17.80
2018-12-26T15:49:24.119Z,17.50
2018-12-26T15:54:51.026Z,17.40
2018-12-26T15:57:19.250Z,17.90
2018-12-26T16:00:06.943Z,17.87
2018-12-26T16:02:35.117Z,17.50
2018-12-26T16:05:03.431Z,19.30
2018-12-26T16:07:51.024Z,19.23
2018-12-26T16:19:29.153Z,20.57
2018-12-26T16:22:16.635Z,20.60
2018-12-26T16:27:43.430Z,20.73
2018-12-26T16:30:30.913Z,21.73
2018-12-26T16:35:58.541Z,21.23
2018-12-26T16:38:46.018Z,21.50
2018-12-26T16:44:13.631Z,21.30
2018-12-26T16:47:01.135Z,21.10
2018-12-26T16:52:28.523Z,22.00
2018-12-26T16:55:15.994Z,21.90
2018-12-26T17:12:42.866Z,22.33
2018-12-26T17:15:30.430Z,22.07
2018-12-26T17:17:58.658Z,21.77
2018-12-26T17:20:26.810Z,22.70
2018-12-26T17:22:54.945Z,23.73
2018-12-26T17:25:23.162Z,22.63
2018-12-26T17:28:10.638Z,24.63
2018-12-26T17:33:37.942Z,22.60
2018-12-26T17:36:06.078Z,24.40
2018-12-26T17:38:34.230Z,23.37
2018-12-26T17:41:02.778Z,23.43
2018-12-26T17:43:30.913Z,22.80
2018-12-26T17:45:59.054Z,22.23
2018-12-26T17:48:27.321Z,22.57
2018-12-26T17:50:55.461Z,22.60
2018-12-26T17:53:43.094Z,22.43
2018-12-26T17:56:18.696Z,21.60
2018-12-26T17:58:51.353Z,21.93
2018-12-26T18:01:40.280Z,23.63
2018-12-26T18:04:08.783Z,22.13
2018-12-26T18:06:36.936Z,22.50
2018-12-26T18:09:25.901Z,22.60
2018-12-26T18:11:54.042Z,22.57
2018-12-26T18:14:22.186Z,22.43
2018-12-26T18:16:50.408Z,22.00
2018-12-26T18:19:18.542Z,21.17
2018-12-26T18:21:46.690Z,21.23
2018-12-26T18:24:14.971Z,22.40
2018-12-26T18:26:43.182Z,20.67
2018-12-26T18:29:11.331Z,21.27
2018-12-26T18:31:40.196Z,20.97
2018-12-26T18:34:08.353Z,21.50
2018-12-26T18:36:37.596Z,23.47
2018-12-26T18:39:06.606Z,22.07
2018-12-26T18:41:34.756Z,21.60
2018-12-26T18:44:02.899Z,22.07
2018-12-26T19:00:48.363Z,21.80
2018-12-26T19:03:16.558Z,22.10
2018-12-26T19:05:44.812Z,22.30
2018-12-26T19:08:12.986Z,21.50
2018-12-26T19:11:00.474Z,22.17
2018-12-26T19:13:29.073Z,22.40
2018-12-26T19:15:57.214Z,22.90
2018-12-26T19:18:25.358Z,23.47
2018-12-26T19:21:13.002Z,23.03
2018-12-26T19:24:00.486Z,23.73
2018-12-26T19:46:54.461Z,24.17
2018-12-26T19:49:22.966Z,26.37
2018-12-26T19:51:51.133Z,26.30
2018-12-26T19:54:19.294Z,25.07
2018-12-26T19:56:47.603Z,22.97
2018-12-26T19:59:15.742Z,26.00
2018-12-26T20:01:48.131Z,23.00
2018-12-26T20:04:33.219Z,24.53
2018-12-26T20:07:20.694Z,24.00
2018-12-26T20:09:49.123Z,26.07
2018-12-26T20:12:17.273Z,23.47
2018-12-26T20:14:45.409Z,23.63
2018-12-26T20:17:13.600Z,24.00
2018-12-26T20:19:41.746Z,24.60
2018-12-26T20:22:09.885Z,23.23
2018-12-26T20:24:38.290Z,21.80
2018-12-26T20:27:06.436Z,23.70
2018-12-26T20:29:34.587Z,24.33
2018-12-26T20:32:22.127Z,26.73
2018-12-26T20:35:09.682Z,25.53
2018-12-26T20:37:37.985Z,25.07
2018-12-26T20:40:25.468Z,24.47
2018-12-26T20:46:17.803Z,25.77
2018-12-26T20:48:46.154Z,29.20
2018-12-26T20:51:14.299Z,27.53
2018-12-26T20:53:42.509Z,26.83
2018-12-26T20:56:29.992Z,28.27
2018-12-26T20:58:58.316Z,25.57
2018-12-26T21:01:26.534Z,24.80
2018-12-26T21:03:54.678Z,26.50
2018-12-26T21:06:22.890Z,26.60
2018-12-26T21:08:51.032Z,28.03
2018-12-26T21:11:19.172Z,28.10
2018-12-26T21:13:47.407Z,26.60
2018-12-26T21:16:34.902Z,25.63
2018-12-26T21:19:03.337Z,27.87
2018-12-26T21:21:31.489Z,26.77
2018-12-26T21:23:59.721Z,25.40
2018-12-26T21:26:28.123Z,27.50
2018-12-26T21:28:56.341Z,26.63
2018-12-26T21:31:24.498Z,26.67
2018-12-26T21:33:52.886Z,28.10
2018-12-26T21:36:40.515Z,29.63
2018-12-26T21:39:09.005Z,27.13
2018-12-26T21:41:56.630Z,27.13
2018-12-26T21:44:24.810Z,27.13
2018-12-26T21:46:52.951Z,26.87
2018-12-26T21:49:40.539Z,27.13
2018-12-26T21:52:28.135Z,25.97
2018-12-26T21:54:56.512Z,25.63
2018-12-26T21:57:43.996Z,26.43
2018-12-26T22:00:12.417Z,25.93
2018-12-26T22:02:59.926Z,25.07
2018-12-26T22:05:28.498Z,25.10
2018-12-26T22:07:56.660Z,27.70
2018-12-26T22:10:44.161Z,27.77
2018-12-26T22:13:31.648Z,24.70
2018-12-26T22:15:59.819Z,22.93
2018-12-26T22:18:47.401Z,24.00
2018-12-26T22:21:15.791Z,25.30
2018-12-26T22:24:03.345Z,23.93
2018-12-26T22:38:38.410Z,24.87
2018-12-26T22:41:25.894Z,25.67
2018-12-26T22:43:54.330Z,24.83
2018-12-26T22:46:41.816Z,26.00
2018-12-26T22:49:09.978Z,26.27
2018-12-26T22:51:57.477Z,25.23
2018-12-26T22:57:53.174Z,24.93
2018-12-26T23:03:34.272Z,29.00
2018-12-26T23:06:22.686Z,26.37
2018-12-26T23:27:12.844Z,26.33
2018-12-26T23:30:00.347Z,28.53
2018-12-26T23:44:03.609Z,25.63
2018-12-26T23:46:31.867Z,24.70
2018-12-26T23:51:33.560Z,25.37
2018-12-26T23:57:14.462Z,26.43
2018-12-26T23:59:42.594Z,25.53
